Catania — V2GH3 — position and weather

sailwx.info

Track history (hours):
 
Tides and Currents Weather Stations Pressure Air Temp Water Temp Dewpoint Dewpoint Depression Visibility Wind Speed Wind Dir Waves Ship Positions

Catania

Last reported at 2018-Jun-22 16:47 UTC. Time now 2018-Jun-22 17:01 UTC.
Position N 56°60' W 001°50'.

Length 87 m.

Type: Cargo ship. MMSI: 203888028.

Date/timePositionNaut miles runAvg speedWind from/ knotsBaromVisibWave heightAir tempDewpointWater temp
2018-Jun-22 16:47N 56°60' W 001°50'3 8.7
2018-Jun-22 16:26N 57°02' W 001°52'4 8.6
2018-Jun-22 16:00N 57°06' W 001°55'4 8.7
2018-Jun-22 15:30N 57°09' W 002°00'3 4.7
2018-Jun-22 14:58N 57°09' W 002°05'0 0.0
2018-Jun-22 14:28N 57°09' W 002°05'0 0.0
2018-Jun-22 13:58N 57°09' W 002°05'0 0.1
2018-Jun-22 13:28N 57°09' W 002°05'0 0.1
2018-Jun-22 13:01N 57°09' W 002°05'0 0.0
2018-Jun-22 12:28N 57°09' W 002°05'0 0.0
2018-Jun-22 11:58N 57°09' W 002°05'0 0.0
2018-Jun-22 11:28N 57°09' W 002°05'0 0.0
2018-Jun-22 10:58N 57°09' W 002°05'0 0.0
2018-Jun-22 10:28N 57°09' W 002°05'0 0.0
2018-Jun-22 09:58N 57°09' W 002°05'0 0.0
2018-Jun-22 09:28N 57°09' W 002°05'0 0.0
2018-Jun-22 08:58N 57°09' W 002°05'0 0.0
2018-Jun-22 08:28N 57°09' W 002°05'0 0.0
2018-Jun-22 07:58N 57°09' W 002°05'0 0.0
2018-Jun-22 07:28N 57°09' W 002°05'0 0.0
2018-Jun-22 06:58N 57°09' W 002°05'0 0.0
2018-Jun-22 06:28N 57°09' W 002°05'0 0.0
2018-Jun-22 05:58N 57°09' W 002°05'0 0.0
2018-Jun-22 05:28N 57°09' W 002°05'0 0.1
2018-Jun-22 04:58N 57°09' W 002°05'0 0.1
2018-Jun-22 04:29N 57°09' W 002°05'0 0.0
2018-Jun-22 03:59N 57°09' W 002°05'0 0.0
2018-Jun-22 03:29N 57°09' W 002°05'0 0.0
2018-Jun-22 02:59N 57°09' W 002°05'0 0.0
2018-Jun-22 02:30N 57°09' W 002°05'2 3.1
2018-Jun-22 02:00N 57°09' W 002°02'4 8.2
2018-Jun-22 01:30N 57°12' W 001°56'16 8.8
2018-Jun-21 23:44N 57°26' W 001°43'2 9.0
2018-Jun-21 23:30N 57°27' W 001°41'5 9.0
2018-Jun-21 23:01N 57°32' W 001°42'  
2018-Jun-16 15:34N 53°24' E 006°57'112.3
2018-Jun-16 15:28N 53°23' E 006°58'510.0
2018-Jun-16 14:58N 53°20' E 007°04'4 5.2
2018-Jun-16 14:07N 53°20' E 007°11'0 0.9
2018-Jun-16 13:38N 53°20' E 007°12'0 0.0
2018-Jun-16 13:29N 53°20' E 007°12'0 0.0
2018-Jun-16 12:59N 53°20' E 007°12'0 0.0
2018-Jun-16 11:59N 53°20' E 007°12'0 0.0
2018-Jun-16 10:41N 53°20' E 007°12'7 1.1
2018-Jun-16 04:44N 53°19' E 007°01'1 5.5
2018-Jun-16 04:29N 53°20' E 006°60'3 5.5
2018-Jun-16 03:59N 53°23' E 006°58'3 5.6
2018-Jun-16 03:26N 53°26' E 006°55'2 5.5
2018-Jun-16 02:59N 53°27' E 006°52'59 7.7
2018-Jun-15 19:22N 53°31' E 005°14'411.0
2018-Jun-15 18:58N 53°29' E 005°06'611.0
2018-Jun-15 18:28N 53°27' E 004°58'22 9.8
2018-Jun-15 16:16N 53°12' E 004°33'410.7
2018-Jun-15 15:55N 53°09' E 004°30'37 9.4
2018-Jun-15 11:57N 52°36' E 003°59'4 8.9
2018-Jun-15 11:30N 52°33' E 003°56'6 8.7
2018-Jun-15 10:51N 52°27' E 003°54'3 8.6
2018-Jun-15 10:30N 52°24' E 003°53'4 8.6
2018-Jun-15 10:00N 52°20' E 003°52'4 8.7
2018-Jun-15 09:30N 52°15' E 003°53'9 8.8
2018-Jun-15 08:30N 52°07' E 003°55'5 9.1
2018-Jun-15 08:00N 52°02' E 003°57'510.1
2018-Jun-15 07:30N 51°59' E 004°04'612.4
2018-Jun-15 07:00N 51°56' E 004°13'711.3
2018-Jun-15 06:24N 51°54' E 004°23'3 8.3
2018-Jun-15 05:59N 51°54' E 004°28'0 0.0
2018-Jun-15 05:28N 51°54' E 004°28'0 0.0
2018-Jun-15 04:58N 51°54' E 004°28'0 0.0
2018-Jun-15 04:28N 51°54' E 004°28'0 0.0
2018-Jun-15 03:58N 51°54' E 004°28'0 0.0
2018-Jun-15 03:28N 51°54' E 004°28'0 0.0
2018-Jun-15 02:58N 51°54' E 004°28'0 0.0
2018-Jun-15 02:30N 51°54' E 004°28'0 0.0
2018-Jun-15 02:00N 51°54' E 004°28'0 0.0
2018-Jun-15 01:30N 51°54' E 004°28'0 0.0
2018-Jun-15 01:00N 51°54' E 004°28'0 0.0
2018-Jun-15 00:30N 51°54' E 004°28'0 0.0
2018-Jun-15 00:00N 51°54' E 004°28'0 0.0
2018-Jun-14 23:30N 51°54' E 004°28'0 0.0
2018-Jun-14 22:58N 51°54' E 004°28'0 0.0
2018-Jun-14 22:28N 51°54' E 004°28'0 0.0
2018-Jun-14 22:00N 51°54' E 004°28'2 2.9
2018-Jun-14 21:25N 51°55' E 004°31'3 7.1
2018-Jun-14 20:58N 51°54' E 004°36'9 9.0
2018-Jun-14 19:58N 51°49' E 004°48'43 9.7
2018-Jun-14 15:35N 51°52' E 005°57'3 8.3
2018-Jun-14 15:14N 51°53' E 006°01'311.6
2018-Jun-14 15:00N 51°51' E 006°05'1810.2
2018-Jun-14 13:15N 51°41' E 006°28'310.4
2018-Jun-14 12:57N 51°39' E 006°33'4 8.3
2018-Jun-14 12:29N 51°36' E 006°36'8 8.7
2018-Jun-14 11:36N 51°30' E 006°43'112.8
2018-Jun-14 11:30N 51°29' E 006°41'4 0.8
2018-Jun-14 06:18N 51°26' E 006°44'0 0.0
2018-Jun-14 06:00N 51°26' E 006°44'0 0.0
2018-Jun-14 05:27N 51°26' E 006°44'0 0.0
2018-Jun-14 04:57N 51°26' E 006°44'0 0.0
2018-Jun-14 04:30N 51°26' E 006°44'0 0.0
2018-Jun-14 04:00N 51°26' E 006°44'0 0.0
2018-Jun-14 03:30N 51°26' E 006°44'0 0.0
2018-Jun-14 03:00N 51°26' E 006°44'0 0.0
2018-Jun-14 02:28N 51°26' E 006°44'0 0.0
2018-Jun-14 01:58N 51°26' E 006°44'0 0.0
2018-Jun-14 01:25N 51°26' E 006°44'0 0.1
2018-Jun-14 00:59N 51°26' E 006°44'0 0.0
2018-Jun-14 00:28N 51°26' E 006°44'0 0.0
2018-Jun-13 23:58N 51°26' E 006°44'0 0.0
2018-Jun-13 23:29N 51°26' E 006°44'0 0.0
2018-Jun-13 22:59N 51°26' E 006°44'0 0.0
2018-Jun-13 22:29N 51°26' E 006°44'0 0.0
2018-Jun-13 21:59N 51°26' E 006°44'0 0.0
2018-Jun-13 21:20N 51°26' E 006°44'0 0.0
2018-Jun-13 20:59N 51°26' E 006°44'0 0.0
2018-Jun-13 20:26N 51°26' E 006°44'0 0.0
2018-Jun-13 19:59N 51°26' E 006°44'0 0.0
2018-Jun-13 19:29N 51°26' E 006°44'0 0.0
2018-Jun-13 18:59N 51°26' E 006°44'0 0.0
2018-Jun-13 18:29N 51°26' E 006°44'0 0.0
2018-Jun-13 17:59N 51°26' E 006°44'0 0.0
2018-Jun-13 17:29N 51°26' E 006°44'0 0.0
2018-Jun-13 16:59N 51°26' E 006°44'0 0.0
2018-Jun-13 16:29N 51°26' E 006°44'0 0.0
2018-Jun-13 15:59N 51°26' E 006°44'0 0.0
2018-Jun-13 15:29N 51°26' E 006°44'0 0.0
2018-Jun-13 14:56N 51°26' E 006°44'0 0.1
2018-Jun-13 14:29N 51°26' E 006°44'0 0.0
2018-Jun-13 14:00N 51°26' E 006°44'0 0.1
2018-Jun-13 13:30N 51°26' E 006°44'0 0.0
2018-Jun-13 12:59N 51°26' E 006°44'  
Track history (hours):
 
Tides and Currents Weather Stations Pressure Air Temp Water Temp Dewpoint Dewpoint Depression Visibility Wind Speed Wind Dir Waves Ship Positions

Catania

Last reported at 2018-Jun-22 16:47 UTC. Time now 2018-Jun-22 17:01 UTC.
Position N 56°60' W 001°50'.

Length 87 m.

Type: Cargo ship. MMSI: 203888028.

Date/timePositionNaut miles runAvg speedWind from/ knotsBaromVisibWave heightAir tempDewpointWater temp
2018-Jun-22 16:47N 56°60' W 001°50'3 8.7
2018-Jun-22 16:26N 57°02' W 001°52'4 8.6
2018-Jun-22 16:00N 57°06' W 001°55'4 8.7
2018-Jun-22 15:30N 57°09' W 002°00'3 4.7
2018-Jun-22 14:58N 57°09' W 002°05'0 0.0
2018-Jun-22 14:28N 57°09' W 002°05'0 0.0
2018-Jun-22 13:58N 57°09' W 002°05'0 0.1
2018-Jun-22 13:28N 57°09' W 002°05'0 0.1
2018-Jun-22 13:01N 57°09' W 002°05'0 0.0
2018-Jun-22 12:28N 57°09' W 002°05'0 0.0
2018-Jun-22 11:58N 57°09' W 002°05'0 0.0
2018-Jun-22 11:28N 57°09' W 002°05'0 0.0
2018-Jun-22 10:58N 57°09' W 002°05'0 0.0
2018-Jun-22 10:28N 57°09' W 002°05'0 0.0
2018-Jun-22 09:58N 57°09' W 002°05'0 0.0
2018-Jun-22 09:28N 57°09' W 002°05'0 0.0
2018-Jun-22 08:58N 57°09' W 002°05'0 0.0
2018-Jun-22 08:28N 57°09' W 002°05'0 0.0
2018-Jun-22 07:58N 57°09' W 002°05'0 0.0
2018-Jun-22 07:28N 57°09' W 002°05'0 0.0
2018-Jun-22 06:58N 57°09' W 002°05'0 0.0
2018-Jun-22 06:28N 57°09' W 002°05'0 0.0
2018-Jun-22 05:58N 57°09' W 002°05'0 0.0
2018-Jun-22 05:28N 57°09' W 002°05'0 0.1
2018-Jun-22 04:58N 57°09' W 002°05'0 0.1
2018-Jun-22 04:29N 57°09' W 002°05'0 0.0
2018-Jun-22 03:59N 57°09' W 002°05'0 0.0
2018-Jun-22 03:29N 57°09' W 002°05'0 0.0
2018-Jun-22 02:59N 57°09' W 002°05'0 0.0
2018-Jun-22 02:30N 57°09' W 002°05'2 3.1
2018-Jun-22 02:00N 57°09' W 002°02'4 8.2
2018-Jun-22 01:30N 57°12' W 001°56'16 8.8
2018-Jun-21 23:44N 57°26' W 001°43'2 9.0
2018-Jun-21 23:30N 57°27' W 001°41'5 9.0
2018-Jun-21 23:01N 57°32' W 001°42'  
2018-Jun-16 15:34N 53°24' E 006°57'112.3
2018-Jun-16 15:28N 53°23' E 006°58'510.0
2018-Jun-16 14:58N 53°20' E 007°04'4 5.2
2018-Jun-16 14:07N 53°20' E 007°11'0 0.9
2018-Jun-16 13:38N 53°20' E 007°12'0 0.0
2018-Jun-16 13:29N 53°20' E 007°12'0 0.0
2018-Jun-16 12:59N 53°20' E 007°12'0 0.0
2018-Jun-16 11:59N 53°20' E 007°12'0 0.0
2018-Jun-16 10:41N 53°20' E 007°12'7 1.1
2018-Jun-16 04:44N 53°19' E 007°01'1 5.5
2018-Jun-16 04:29N 53°20' E 006°60'3 5.5
2018-Jun-16 03:59N 53°23' E 006°58'3 5.6
2018-Jun-16 03:26N 53°26' E 006°55'2 5.5
2018-Jun-16 02:59N 53°27' E 006°52'59 7.7
2018-Jun-15 19:22N 53°31' E 005°14'411.0
2018-Jun-15 18:58N 53°29' E 005°06'611.0
2018-Jun-15 18:28N 53°27' E 004°58'22 9.8
2018-Jun-15 16:16N 53°12' E 004°33'410.7
2018-Jun-15 15:55N 53°09' E 004°30'37 9.4
2018-Jun-15 11:57N 52°36' E 003°59'4 8.9
2018-Jun-15 11:30N 52°33' E 003°56'6 8.7
2018-Jun-15 10:51N 52°27' E 003°54'3 8.6
2018-Jun-15 10:30N 52°24' E 003°53'4 8.6
2018-Jun-15 10:00N 52°20' E 003°52'4 8.7
2018-Jun-15 09:30N 52°15' E 003°53'9 8.8
2018-Jun-15 08:30N 52°07' E 003°55'5 9.1
2018-Jun-15 08:00N 52°02' E 003°57'510.1
2018-Jun-15 07:30N 51°59' E 004°04'612.4
2018-Jun-15 07:00N 51°56' E 004°13'711.3
2018-Jun-15 06:24N 51°54' E 004°23'3 8.3
2018-Jun-15 05:59N 51°54' E 004°28'0 0.0
2018-Jun-15 05:28N 51°54' E 004°28'0 0.0
2018-Jun-15 04:58N 51°54' E 004°28'0 0.0
2018-Jun-15 04:28N 51°54' E 004°28'0 0.0
2018-Jun-15 03:58N 51°54' E 004°28'0 0.0
2018-Jun-15 03:28N 51°54' E 004°28'0 0.0
2018-Jun-15 02:58N 51°54' E 004°28'0 0.0
2018-Jun-15 02:30N 51°54' E 004°28'0 0.0
2018-Jun-15 02:00N 51°54' E 004°28'0 0.0
2018-Jun-15 01:30N 51°54' E 004°28'0 0.0
2018-Jun-15 01:00N 51°54' E 004°28'0 0.0
2018-Jun-15 00:30N 51°54' E 004°28'0 0.0
2018-Jun-15 00:00N 51°54' E 004°28'0 0.0
2018-Jun-14 23:30N 51°54' E 004°28'0 0.0
2018-Jun-14 22:58N 51°54' E 004°28'0 0.0
2018-Jun-14 22:28N 51°54' E 004°28'0 0.0
2018-Jun-14 22:00N 51°54' E 004°28'2 2.9
2018-Jun-14 21:25N 51°55' E 004°31'3 7.1
2018-Jun-14 20:58N 51°54' E 004°36'9 9.0
2018-Jun-14 19:58N 51°49' E 004°48'43 9.7
2018-Jun-14 15:35N 51°52' E 005°57'3 8.3
2018-Jun-14 15:14N 51°53' E 006°01'311.6
2018-Jun-14 15:00N 51°51' E 006°05'1810.2
2018-Jun-14 13:15N 51°41' E 006°28'310.4
2018-Jun-14 12:57N 51°39' E 006°33'4 8.3
2018-Jun-14 12:29N 51°36' E 006°36'8 8.7
2018-Jun-14 11:36N 51°30' E 006°43'112.8
2018-Jun-14 11:30N 51°29' E 006°41'4 0.8
2018-Jun-14 06:18N 51°26' E 006°44'0 0.0
2018-Jun-14 06:00N 51°26' E 006°44'0 0.0
2018-Jun-14 05:27N 51°26' E 006°44'0 0.0
2018-Jun-14 04:57N 51°26' E 006°44'0 0.0
2018-Jun-14 04:30N 51°26' E 006°44'0 0.0
2018-Jun-14 04:00N 51°26' E 006°44'0 0.0
2018-Jun-14 03:30N 51°26' E 006°44'0 0.0
2018-Jun-14 03:00N 51°26' E 006°44'0 0.0
2018-Jun-14 02:28N 51°26' E 006°44'0 0.0
2018-Jun-14 01:58N 51°26' E 006°44'0 0.0
2018-Jun-14 01:25N 51°26' E 006°44'0 0.1
2018-Jun-14 00:59N 51°26' E 006°44'0 0.0
2018-Jun-14 00:28N 51°26' E 006°44'0 0.0
2018-Jun-13 23:58N 51°26' E 006°44'0 0.0
2018-Jun-13 23:29N 51°26' E 006°44'0 0.0
2018-Jun-13 22:59N 51°26' E 006°44'0 0.0
2018-Jun-13 22:29N 51°26' E 006°44'0 0.0
2018-Jun-13 21:59N 51°26' E 006°44'0 0.0
2018-Jun-13 21:20N 51°26' E 006°44'0 0.0
2018-Jun-13 20:59N 51°26' E 006°44'0 0.0
2018-Jun-13 20:26N 51°26' E 006°44'0 0.0
2018-Jun-13 19:59N 51°26' E 006°44'0 0.0
2018-Jun-13 19:29N 51°26' E 006°44'0 0.0
2018-Jun-13 18:59N 51°26' E 006°44'0 0.0
2018-Jun-13 18:29N 51°26' E 006°44'0 0.0
2018-Jun-13 17:59N 51°26' E 006°44'0 0.0
2018-Jun-13 17:29N 51°26' E 006°44'0 0.0
2018-Jun-13 16:59N 51°26' E 006°44'0 0.0
2018-Jun-13 16:29N 51°26' E 006°44'0 0.0
2018-Jun-13 15:59N 51°26' E 006°44'0 0.0
2018-Jun-13 15:29N 51°26' E 006°44'0 0.0
2018-Jun-13 14:56N 51°26' E 006°44'0 0.1
2018-Jun-13 14:29N 51°26' E 006°44'0 0.0
2018-Jun-13 14:00N 51°26' E 006°44'0 0.1
2018-Jun-13 13:30N 51°26' E 006°44'0 0.0
2018-Jun-13 12:59N 51°26' E 006°44'  

Dump ship's entire track history